Time;durP1;ratioP1;P1;durP2;ratioP2;P2;SDS_P1;SDS_P2;PMS_P1;PMS_P2;Temp;Humidity;BMP_temperature;BMP_pressure;BME280_temperature;BME280_humidity;BME280_pressure;Samples;Min_cycle;Max_cycle;Signal;HPM_P1;HPM_P2
2023/01/23 00:03:25;;;;;;;14.00;6.65;;;;;;;2.04;100.00;101214.09;12183919;19;20528;-81
2023/01/23 00:07:27;;;;;;;13.35;6.22;;;;;;;2.02;100.00;101206.13;12202436;19;20003;-81
2023/01/23 00:11:29;;;;;;;12.52;5.80;;;;;;;1.96;100.00;101204.06;12207686;19;20015;-81
2023/01/23 00:15:32;;;;;;;13.37;5.63;;;;;;;1.94;100.00;101208.78;12185649;19;20702;-81
2023/01/23 00:19:33;;;;;;;12.15;5.65;;;;;;;1.98;100.00;101212.88;12209200;19;20006;-80
2023/01/23 00:23:36;;;;;;;13.73;5.57;;;;;;;2.04;100.00;101203.22;12195171;19;20007;-81
2023/01/23 00:27:44;;;;;;;15.82;6.72;;;;;;;2.03;100.00;101205.09;12273623;19;20079;-81
2023/01/23 00:31:46;;;;;;;12.32;5.90;;;;;;;2.02;100.00;101218.84;12275234;19;20087;-81
2023/01/23 00:40:54;;;;;;;13.87;5.93;;;;;;;1.99;100.00;101214.59;12231000;19;20036;-81
2023/01/23 00:44:55;;;;;;;12.93;5.70;;;;;;;1.93;100.00;101209.78;12186608;19;20969;-82
2023/01/23 00:48:57;;;;;;;14.63;5.85;;;;;;;1.94;100.00;101208.78;12205317;19;20002;-81
2023/01/23 00:52:59;;;;;;;11.75;5.70;;;;;;;1.96;100.00;101214.03;12206595;19;20077;-81
2023/01/23 00:57:00;;;;;;;13.75;6.03;;;;;;;1.96;100.00;101216.75;12183730;19;20013;-82
2023/01/23 01:01:02;;;;;;;14.48;5.82;;;;;;;1.95;100.00;101215.06;12205215;19;20360;-82
2023/01/23 01:05:06;;;;;;;15.90;5.90;;;;;;;1.90;100.00;101222.84;12206005;19;20123;-82
2023/01/23 01:09:07;;;;;;;12.93;5.63;;;;;;;1.91;100.00;101221.84;12189569;19;20031;-82
2023/01/23 01:13:11;;;;;;;14.80;5.90;;;;;;;1.88;100.00;101212.13;12214753;19;20014;-82
2023/01/23 01:17:13;;;;;;;12.95;5.28;;;;;;;1.87;100.00;101210.41;12203448;19;20007;-81
2023/01/23 01:21:18;;;;;;;17.00;6.20;;;;;;;1.83;100.00;101209.88;12183410;19;20010;-81
2023/01/23 01:25:19;;;;;;;13.13;5.57;;;;;;;1.78;100.00;101223.09;12205571;19;20085;-82
2023/01/23 01:29:21;;;;;;;13.93;5.60;;;;;;;1.75;100.00;101228.00;12202855;19;20110;-82
2023/01/23 01:33:24;;;;;;;10.83;5.60;;;;;;;1.79;100.00;101230.25;12181253;19;20007;-82
2023/01/23 01:37:26;;;;;;;;;;;;;;;1.79;100.00;101224.81;12200405;19;21570;-82
2023/01/23 01:41:27;;;;;;;10.60;5.13;;;;;;;1.79;100.00;101224.81;12200239;19;19911;-81
2023/01/23 01:45:53;;;;;;;15.48;6.25;;;;;;;1.78;100.00;101233.97;12178373;19;20437;-82
2023/01/23 01:50:00;;;;;;;12.82;5.35;;;;;;;1.76;100.00;101236.00;12206485;19;20018;-83
2023/01/23 01:54:13;;;;;;;12.90;5.20;;;;;;;1.74;100.00;101235.28;12193996;19;20010;-82
2023/01/23 01:58:14;;;;;;;;;;;;;;;1.69;100.00;101234.91;12219630;19;21264;-82
2023/01/23 02:02:21;;;;;;;13.35;5.80;;;;;;;1.66;100.00;101228.94;12199807;19;19907;-81
2023/01/23 02:06:24;;;;;;;14.68;5.93;;;;;;;1.51;100.00;101231.34;12176984;19;20556;-83
2023/01/23 02:10:25;;;;;;;13.45;5.97;;;;;;;1.44;100.00;101241.16;12196958;19;20394;-82
2023/01/23 02:14:27;;;;;;;13.32;5.72;;;;;;;1.33;100.00;101244.94;12191306;19;20475;-83
2023/01/23 02:18:31;;;;;;;9.13;4.43;;;;;;;1.21;100.00;101238.03;12176622;19;20010;-82
2023/01/23 02:23:00;;;;;;;10.95;4.90;;;;;;;1.09;100.00;101245.53;12201937;19;20022;-82
2023/01/23 02:27:16;;;;;;;;;;;;;;;0.95;100.00;101246.06;12174663;19;20028;-82
2023/01/23 02:31:18;;;;;;;13.15;5.47;;;;;;;0.82;100.00;101233.72;12198693;19;19926;-82
2023/01/23 02:35:29;;;;;;;15.70;5.80;;;;;;;0.71;100.00;101239.31;12222390;19;20007;-82
2023/01/23 02:39:38;;;;;;;13.43;6.20;;;;;;;0.65;100.00;101248.06;12205196;19;20018;-83
2023/01/23 02:43:42;;;;;;;14.60;6.13;;;;;;;0.59;100.00;101245.97;12207466;19;20856;-83
2023/01/23 02:47:45;;;;;;;13.02;5.82;;;;;;;0.54;100.00;101243.72;12180971;19;20003;-83
2023/01/23 02:51:48;;;;;;;15.57;6.07;;;;;;;0.45;100.00;101244.63;12204878;19;20451;-83
2023/01/23 02:55:50;;;;;;;15.13;5.95;;;;;;;0.42;100.00;101243.03;12203636;19;20103;-83
2023/01/23 03:04:15;;;;;;;15.95;7.25;;;;;;;0.50;100.00;101245.00;12204213;19;20010;-83
2023/01/23 03:08:16;;;;;;;14.25;5.88;;;;;;;0.58;100.00;101257.81;12200187;19;20015;-83
2023/01/23 03:12:18;;;;;;;13.75;6.22;;;;;;;0.65;100.00;101258.91;12179031;19;20725;-82
2023/01/23 03:16:19;;;;;;;13.20;6.22;;;;;;;0.73;100.00;101264.47;12196653;19;20007;-82
2023/01/23 03:20:22;;;;;;;14.02;5.88;;;;;;;0.79;100.00;101263.84;12199340;19;20613;-83
2023/01/23 03:24:24;;;;;;;;;;;;;;;0.88;100.00;101265.66;12187281;19;20023;-82
2023/01/23 03:32:48;;;;;;;16.10;6.60;;;;;;;0.94;100.00;101269.63;12189054;19;21170;-82
2023/01/23 03:36:50;;;;;;;13.83;6.07;;;;;;;0.98;100.00;101265.63;12209670;19;20006;-83
2023/01/23 03:45:12;;;;;;;12.07;5.43;;;;;;;1.05;100.00;101265.88;12187796;19;20010;-83
2023/01/23 03:49:15;;;;;;;16.73;6.93;;;;;;;1.08;100.00;101263.69;12205990;19;20011;-83
2023/01/23 03:53:19;;;;;;;14.55;6.35;;;;;;;1.15;100.00;101266.66;12207336;19;20011;-83
2023/01/23 03:57:22;;;;;;;11.57;5.63;;;;;;;1.16;100.00;101268.38;12184424;19;20364;-82
2023/01/23 04:01:36;;;;;;;11.07;5.47;;;;;;;1.26;100.00;101265.59;12205180;19;20046;-83
2023/01/23 04:05:38;;;;;;;13.32;6.05;;;;;;;1.32;100.00;101273.13;12204980;19;20046;-82
2023/01/23 04:09:39;;;;;;;12.02;5.03;;;;;;;1.38;100.00;101272.50;12185640;19;20035;-83
2023/01/23 04:13:42;;;;;;;13.20;5.20;;;;;;;1.44;100.00;101279.19;12203657;19;20013;-83
2023/01/23 04:17:43;;;;;;;11.43;5.38;;;;;;;1.42;100.00;101270.31;12185356;19;20007;-83
2023/01/23 04:21:47;;;;;;;8.25;4.18;;;;;;;1.45;100.00;101279.00;12205509;19;20727;-82
2023/01/23 04:25:50;;;;;;;11.52;6.13;;;;;;;1.50;100.00;101278.56;12208533;19;20014;-82
2023/01/23 04:29:52;;;;;;;10.68;4.65;;;;;;;1.53;100.00;101279.09;12183400;19;20085;-83
2023/01/23 04:33:53;;;;;;;9.40;4.40;;;;;;;1.61;100.00;101283.78;12205134;19;20015;-83
2023/01/23 04:37:56;;;;;;;11.18;4.43;;;;;;;1.64;100.00;101285.31;12204212;19;20394;-81
2023/01/23 04:41:59;;;;;;;8.40;4.22;;;;;;;1.69;100.00;101281.09;12185446;19;20014;-82
2023/01/23 04:46:15;;;;;;;9.15;4.57;;;;;;;1.76;100.00;101274.03;12202504;19;19999;-82
2023/01/23 04:50:32;;;;;;;8.63;4.15;;;;;;;1.75;100.00;101277.75;12201954;19;20017;-82
2023/01/23 04:54:33;;;;;;;8.13;4.47;;;;;;;1.79;100.00;101278.31;12181854;19;20085;-82
2023/01/23 04:58:35;;;;;;;8.60;3.77;;;;;;;1.84;100.00;101281.41;12206559;19;20010;-83
2023/01/23 05:02:38;;;;;;;8.65;4.47;;;;;;;1.89;100.00;101289.09;12207779;19;19999;-83
2023/01/23 05:06:41;;;;;;;9.43;4.20;;;;;;;1.87;100.00;101291.09;12193132;19;20022;-82
2023/01/23 05:10:46;;;;;;;9.85;4.18;;;;;;;1.85;100.00;101294.00;12247789;19;19995;-83
2023/01/23 05:14:51;;;;;;;8.73;4.13;;;;;;;1.87;100.00;101296.53;12240895;19;20020;-85
2023/01/23 05:18:52;;;;;;;9.05;3.83;;;;;;;1.88;100.00;101310.00;12216142;19;20003;-83
2023/01/23 05:22:55;;;;;;;8.05;3.92;;;;;;;1.90;100.00;101307.09;12204665;19;20006;-83
2023/01/23 05:27:06;;;;;;;7.28;3.40;;;;;;;1.96;100.00;101311.91;12181761;19;20026;-82
2023/01/23 05:31:12;;;;;;;7.47;3.50;;;;;;;2.00;100.00;101310.59;12204856;19;20006;-83
2023/01/23 05:35:23;;;;;;;10.30;3.92;;;;;;;1.98;100.00;101318.06;12205730;19;20092;-83
2023/01/23 05:39:24;;;;;;;8.63;3.85;;;;;;;1.98;100.00;101326.22;12184070;19;20085;-83
2023/01/23 05:43:26;;;;;;;6.38;3.05;;;;;;;2.01;100.00;101325.91;12207030;19;20006;-84
2023/01/23 05:47:48;;;;;;;6.68;3.35;;;;;;;2.01;100.00;101331.34;12182392;19;20003;-84
2023/01/23 05:51:51;;;;;;;8.02;4.13;;;;;;;2.06;100.00;101337.16;12205129;19;20006;-83
2023/01/23 05:55:53;;;;;;;9.50;3.60;;;;;;;2.07;100.00;101336.16;12208394;19;20010;-84
2023/01/23 05:59:56;;;;;;;8.88;3.42;;;;;;;2.08;100.00;101335.13;12189183;19;20014;-83
2023/01/23 06:04:18;;;;;;;9.13;4.10;;;;;;;2.09;100.00;101350.44;12213397;19;20783;-85
2023/01/23 06:08:37;;;;;;;9.00;4.13;;;;;;;2.10;100.00;101346.69;12208788;19;20015;-85
2023/01/23 06:12:40;;;;;;;8.23;3.58;;;;;;;2.05;100.00;101352.63;12232668;19;20025;-84
2023/01/23 06:16:42;;;;;;;8.02;4.25;;;;;;;2.11;100.00;101348.41;12235095;19;20011;-84
2023/01/23 06:20:44;;;;;;;7.35;3.88;;;;;;;2.14;100.00;101361.72;12193742;19;20018;-85
2023/01/23 06:24:46;;;;;;;6.55;3.67;;;;;;;2.13;100.00;101361.84;12201148;19;20007;-85
2023/01/23 06:28:48;;;;;;;7.97;3.50;;;;;;;2.10;100.00;101367.63;12202587;19;20086;-84
2023/01/23 06:32:51;;;;;;;7.78;3.58;;;;;;;2.13;100.00;101368.16;12180176;19;20006;-85
2023/01/23 06:36:59;;;;;;;9.20;4.13;;;;;;;2.15;100.00;101374.28;12201897;19;20090;-86
2023/01/23 06:41:01;;;;;;;9.40;4.17;;;;;;;2.10;100.00;101365.75;12201061;19;21282;-87
2023/01/23 06:45:09;;;;;;;8.00;3.63;;;;;;;2.15;100.00;101376.16;12180845;19;20071;-85
2023/01/23 06:49:11;;;;;;;8.20;3.63;;;;;;;2.16;100.00;101373.28;12201224;19;20464;-86
2023/01/23 06:53:14;;;;;;;6.82;3.15;;;;;;;2.15;100.00;101368.84;12204261;19;20002;-86
2023/01/23 06:57:17;;;;;;;10.27;3.90;;;;;;;2.11;100.00;101364.72;12182865;19;20006;-86
2023/01/23 07:01:22;;;;;;;12.25;4.53;;;;;;;2.11;100.00;101364.72;12214745;19;20500;-85
2023/01/23 07:05:43;;;;;;;8.98;4.13;;;;;;;2.10;100.00;101370.31;12193308;19;20031;-85
2023/01/23 07:09:45;;;;;;;8.35;4.57;;;;;;;2.07;100.00;101368.78;12213852;19;20086;-87
2023/01/23 07:13:51;;;;;;;11.25;5.68;;;;;;;2.06;100.00;101375.22;12211999;19;20317;-83
2023/01/23 07:17:53;;;;;;;9.30;4.53;;;;;;;1.99;100.00;101391.31;12183905;19;20003;-85
2023/01/23 07:21:55;;;;;;;9.00;4.20;;;;;;;2.01;100.00;101385.72;12193961;19;20778;-87
2023/01/23 07:25:58;;;;;;;10.65;4.18;;;;;;;2.02;100.00;101398.28;12202494;19;20003;-83
2023/01/23 07:30:00;;;;;;;8.25;3.75;;;;;;;2.03;100.00;101408.19;12209846;19;20035;-88
2023/01/23 07:34:02;;;;;;;9.30;3.55;;;;;;;2.14;100.00;101423.38;12190105;19;20011;-89
2023/01/23 07:38:03;;;;;;;5.60;2.57;;;;;;;2.12;100.00;101420.84;12210196;19;20048;-87
2023/01/23 07:42:05;;;;;;;7.35;3.47;;;;;;;2.21;100.00;101433.50;12209492;19;20062;-89
2023/01/23 07:46:08;;;;;;;15.00;6.68;;;;;;;2.28;100.00;101442.72;12187697;19;20027;-87
2023/01/23 07:50:11;;;;;;;21.50;8.60;;;;;;;2.29;100.00;101438.16;12211216;19;20011;-88
2023/01/23 07:54:13;;;;;;;21.10;9.05;;;;;;;2.33;100.00;101436.00;12202441;19;20010;-87
2023/01/23 07:58:15;;;;;;;12.80;6.20;;;;;;;2.34;100.00;101449.41;12184811;19;20039;-86
2023/01/23 08:02:17;;;;;;;8.23;4.35;;;;;;;2.40;100.00;101451.50;12206802;19;20010;-87
2023/01/23 08:06:19;;;;;;;9.93;4.40;;;;;;;2.51;100.00;101453.16;12204617;19;20495;-88
2023/01/23 08:10:20;;;;;;;7.77;3.67;;;;;;;2.52;100.00;101457.56;12181996;19;20003;-87
2023/01/23 08:14:26;;;;;;;7.32;4.10;;;;;;;2.46;100.00;101467.22;12202594;19;20003;-86
2023/01/23 08:18:29;;;;;;;7.10;4.28;;;;;;;2.50;100.00;101467.78;12177463;19;20754;-85
2023/01/23 08:22:32;;;;;;;11.38;4.45;;;;;;;2.55;100.00;101464.56;12203628;19;20414;-85
2023/01/23 08:26:33;;;;;;;7.38;4.10;;;;;;;2.68;100.00;101465.88;12204962;19;20003;-84
2023/01/23 08:30:36;;;;;;;7.38;3.15;;;;;;;2.77;100.00;101464.09;12223425;19;20007;-85
2023/01/23 08:34:41;;;;;;;8.95;3.88;;;;;;;2.76;100.00;101456.91;12209213;19;20003;-87
2023/01/23 08:38:47;;;;;;;9.00;4.45;;;;;;;2.81;100.00;101460.03;12198820;19;21514;-86
2023/01/23 08:42:53;;;;;;;12.18;6.50;;;;;;;2.91;100.00;101465.34;12180079;19;20023;-85
2023/01/23 08:46:57;;;;;;;8.07;3.97;;;;;;;2.88;100.00;101465.66;12200425;19;20499;-88
2023/01/23 08:51:04;;;;;;;10.90;4.95;;;;;;;2.90;100.00;101469.09;12204276;19;20007;-87
2023/01/23 08:55:06;;;;;;;11.40;4.78;;;;;;;2.94;100.00;101460.47;12183233;19;20006;-89
2023/01/23 08:59:08;;;;;;;8.43;4.40;;;;;;;2.97;100.00;101470.16;12204494;19;20034;-88
2023/01/23 09:03:10;;;;;;;10.02;4.65;;;;;;;3.01;100.00;101470.72;12208031;19;20006;-87
2023/01/23 09:07:12;;;;;;;10.20;4.43;;;;;;;3.09;100.00;101471.59;12184984;19;20015;-84
2023/01/23 09:11:13;;;;;;;11.13;4.78;;;;;;;3.25;100.00;101473.59;12207009;19;20007;-90
2023/01/23 09:15:16;;;;;;;9.25;4.80;;;;;;;3.42;100.00;101466.34;12207150;19;20046;-86
2023/01/23 09:19:17;;;;;;;12.18;6.50;;;;;;;3.53;100.00;101481.56;12185656;19;19999;-88
2023/01/23 09:23:19;;;;;;;12.68;5.82;;;;;;;3.60;100.00;101461.69;12208499;19;20026;-85
2023/01/23 09:27:21;;;;;;;8.90;5.20;;;;;;;3.74;100.00;101470.22;12208324;19;20030;-89
2023/01/23 09:31:25;;;;;;;8.02;3.83;;;;;;;3.70;100.00;101466.13;12211590;19;20053;-84
2023/01/23 09:35:29;;;;;;;11.52;6.95;;;;;;;3.75;100.00;101472.81;12210584;19;20023;-90
2023/01/23 09:39:30;;;;;;;8.63;4.25;;;;;;;3.86;100.00;101468.91;12191751;19;20005;-89
2023/01/23 09:44:08;;;;;;;9.15;4.60;;;;;;;4.07;100.00;101477.50;12212907;19;20085;-88
2023/01/23 09:48:43;;;;;;;9.52;4.63;;;;;;;4.27;100.00;101469.03;12200075;19;20459;-85
2023/01/23 09:52:53;;;;;;;8.30;4.28;;;;;;;4.36;97.98;101472.63;12228563;19;20013;-87
2023/01/23 09:56:59;;;;;;;9.95;4.85;;;;;;;4.38;96.70;101479.63;12242980;19;19995;-82
2023/01/23 10:01:01;;;;;;;7.75;4.32;;;;;;;4.36;95.42;101483.53;12239624;19;19998;-83
2023/01/23 10:05:03;;;;;;;8.05;3.80;;;;;;;4.52;96.46;101489.88;12211702;19;20030;-87
2023/01/23 10:09:24;;;;;;;7.37;4.10;;;;;;;4.47;90.97;101485.94;12197692;19;20472;-85
2023/01/23 10:13:52;;;;;;;7.15;4.05;;;;;;;4.42;91.96;101478.25;12180271;19;20002;-87
2023/01/23 10:18:17;;;;;;;7.97;4.30;;;;;;;4.38;90.42;101476.88;12204531;19;20031;-83
2023/01/23 10:22:57;;;;;;;9.50;4.53;;;;;;;4.50;91.92;101481.00;12179701;19;20010;-86
2023/01/23 10:27:10;;;;;;;7.85;3.78;;;;;;;4.63;90.59;101482.34;12198883;19;20013;-84
2023/01/23 10:31:54;;;;;;;70.05;35.15;;;;;;;4.63;89.85;101485.09;12180039;19;20003;-86
2023/01/23 10:36:02;;;;;;;26.13;15.18;;;;;;;4.65;90.23;101472.13;12195407;19;19999;-85
2023/01/23 10:40:13;;;;;;;11.27;6.47;;;;;;;4.69;90.19;101473.50;12180397;19;20011;-85
2023/01/23 10:44:17;;;;;;;12.88;5.55;;;;;;;4.70;90.28;101478.78;12203057;19;20061;-85
2023/01/23 10:48:31;;;;;;;7.82;4.10;;;;;;;4.81;91.74;101483.03;12207827;19;19998;-85
2023/01/23 10:52:38;;;;;;;10.15;5.43;;;;;;;4.91;91.52;101478.28;12227686;19;20046;-84
2023/01/23 10:56:53;;;;;;;13.63;6.18;;;;;;;4.98;89.63;101473.81;12210238;19;19998;-87
2023/01/23 11:00:55;;;;;;;14.93;6.10;;;;;;;4.95;89.01;101465.97;12183163;19;20468;-87
2023/01/23 11:04:58;;;;;;;14.20;6.22;;;;;;;5.00;88.91;101479.97;12199653;19;20011;-86
2023/01/23 11:09:00;;;;;;;8.85;4.63;;;;;;;5.00;88.96;101474.50;12196631;19;20040;-87
2023/01/23 11:13:24;;;;;;;12.10;4.95;;;;;;;5.07;90.60;101477.38;12176078;19;21475;-87
2023/01/23 11:17:32;;;;;;;9.63;5.22;;;;;;;5.15;88.93;101462.88;12192896;19;20006;-84
2023/01/23 11:21:56;;;;;;;14.85;6.32;;;;;;;5.10;88.40;101462.53;12177802;19;20506;-83
2023/01/23 11:25:57;;;;;;;11.20;5.00;;;;;;;5.03;88.02;101455.03;12189319;19;20082;-84
2023/01/23 11:30:26;;;;;;;8.55;4.15;;;;;;;5.12;88.18;101453.13;12199594;19;20354;-86
2023/01/23 11:34:35;;;;;;;9.30;4.50;;;;;;;5.27;86.62;101449.69;12182834;19;20010;-86
2023/01/23 11:38:45;;;;;;;6.75;3.67;;;;;;;5.44;86.57;101441.25;12201028;19;20002;-84
2023/01/23 11:42:54;;;;;;;6.22;3.45;;;;;;;5.48;85.86;101441.75;12227639;19;20010;-81
2023/01/23 11:47:17;;;;;;;6.82;3.55;;;;;;;5.56;83.73;101430.78;12258396;19;19995;-84
2023/01/23 11:51:31;;;;;;;7.68;3.10;;;;;;;5.62;85.60;101448.34;12219461;19;20473;-85
2023/01/23 11:55:42;;;;;;;7.35;3.47;;;;;;;5.59;84.22;101446.84;12199576;19;20010;-84
2023/01/23 11:59:48;;;;;;;6.75;3.13;;;;;;;5.71;85.16;101442.69;12207589;19;20519;-85
2023/01/23 12:04:27;;;;;;;8.65;4.25;;;;;;;5.79;83.97;101436.31;12186498;19;20476;-85
2023/01/23 12:08:48;;;;;;;7.70;3.70;;;;;;;5.59;81.17;101432.28;12207048;19;20008;-84
2023/01/23 12:13:18;;;;;;;6.63;3.63;;;;;;;5.66;83.63;101433.31;12182224;19;20638;-84
2023/01/23 12:18:00;;;;;;;8.07;3.85;;;;;;;5.72;83.13;101432.59;12200817;19;20035;-84
2023/01/23 12:22:20;;;;;;;7.43;3.47;;;;;;;5.75;82.98;101429.50;12181734;19;20014;-84
2023/01/23 12:26:27;;;;;;;7.53;3.72;;;;;;;5.87;83.07;101419.84;12200754;19;20342;-83
2023/01/23 12:30:42;;;;;;;7.95;3.40;;;;;;;5.84;82.67;101424.84;12175721;19;20036;-83
2023/01/23 12:35:07;;;;;;;6.30;3.67;;;;;;;5.87;82.90;101416.28;12205089;19;20011;-83
2023/01/23 12:39:36;;;;;;;5.95;3.20;;;;;;;6.00;81.76;101402.03;12208006;19;20020;-85
2023/01/23 12:43:52;;;;;;;8.55;3.60;;;;;;;6.15;80.55;101408.41;12183759;19;20081;-85
2023/01/23 12:48:02;;;;;;;5.88;3.53;;;;;;;6.28;81.46;101400.47;12196202;19;20022;-80
2023/01/23 12:52:06;;;;;;;7.50;3.85;;;;;;;6.30;80.96;101392.91;12180088;19;20074;-86
2023/01/23 12:56:24;;;;;;;5.30;3.63;;;;;;;6.30;81.60;101392.91;12199730;19;20038;-84
2023/01/23 13:00:32;;;;;;;5.80;3.25;;;;;;;6.34;82.31;101398.88;12181416;19;20002;-84
2023/01/23 13:05:18;;;;;;;8.00;3.60;;;;;;;6.28;80.18;101392.25;12203376;19;20010;-83
2023/01/23 13:10:00;;;;;;;7.78;3.90;;;;;;;6.20;80.59;101392.31;12201736;19;20010;-82
2023/01/23 13:14:16;;;;;;;5.80;3.20;;;;;;;6.20;80.89;101392.31;12094624;19;2004317;-80
2023/01/23 13:18:26;;;;;;;6.43;3.75;;;;;;;6.04;80.42;101397.88;12200776;19;20006;-84
2023/01/23 13:22:37;;;;;;;6.90;3.72;;;;;;;6.02;81.12;101389.03;12177633;19;20048;-81
2023/01/23 13:26:38;;;;;;;8.00;3.25;;;;;;;6.17;80.93;101381.72;12199981;19;20047;-83
2023/01/23 13:30:42;;;;;;;;;;;;;;;6.36;80.75;101383.09;12174095;19;20006;-83
2023/01/23 13:34:45;;;;;;;;;;;;;;;6.64;79.15;101372.44;12196993;19;19906;-85
2023/01/23 13:39:18;;;;;;;6.63;3.45;;;;;;;6.91;79.52;101373.69;12193158;19;19919;-84
2023/01/23 13:43:38;;;;;;;;;;;;;;;6.94;79.37;101370.56;12173646;19;20024;-83
2023/01/23 13:56:37;;;;;;;7.00;3.72;;;;;;;6.21;81.58;101371.25;12174404;19;20365;-83
2023/01/23 13:57:36;;;;;;;6.07;3.17;;;;;;;5.87;82.18;101359.66;12172899;19;20027;-85
2023/01/23 14:06:50;;;;;;;6.18;3.47;;;;;;;5.27;83.90;101356.75;12171388;19;20015;-85
2023/01/23 14:11:17;;;;;;;8.20;3.63;;;;;;;5.14;84.32;101362.78;12191621;19;20011;-84
2023/01/23 14:20:16;;;;;;;7.72;3.15;;;;;;;5.09;84.46;101346.06;12192265;19;20011;-82
2023/01/23 14:24:22;;;;;;;7.13;3.53;;;;;;;5.07;85.23;101339.94;12191612;19;20343;-84
2023/01/23 14:28:24;;;;;;;7.45;3.58;;;;;;;5.09;85.03;101346.91;12169096;19;20011;-82
2023/01/23 14:32:33;;;;;;;6.78;4.03;;;;;;;5.10;84.45;101334.94;12189609;19;20102;-80
2023/01/23 14:36:36;;;;;;;6.20;3.58;;;;;;;5.26;84.93;101339.50;12170563;19;20003;-85
2023/01/23 14:40:42;;;;;;;6.45;3.67;;;;;;;5.27;83.96;101341.22;12201239;19;20036;-83
2023/01/23 14:44:53;;;;;;;8.30;3.78;;;;;;;5.47;84.52;101341.59;12256334;19;20121;-82
2023/01/23 14:48:55;;;;;;;8.68;4.35;;;;;;;5.61;84.15;101338.13;12236768;19;19995;-81
2023/01/23 14:52:59;;;;;;;9.82;4.30;;;;;;;5.63;83.31;101340.69;12202980;19;20039;-84
2023/01/23 14:57:04;;;;;;;9.93;5.43;;;;;;;5.60;82.87;101339.16;12192203;19;20503;-86
2023/01/23 15:01:06;;;;;;;9.10;4.03;;;;;;;5.55;82.74;101340.72;12174830;19;20018;-81
2023/01/23 15:05:10;;;;;;;10.13;5.45;;;;;;;5.66;83.40;101335.69;12194872;19;20383;-84
2023/01/23 15:09:16;;;;;;;11.10;4.97;;;;;;;5.71;83.96;101338.75;12196122;19;20007;-82
2023/01/23 15:13:24;;;;;;;8.05;4.70;;;;;;;5.78;83.88;101343.50;12166641;19;20341;-84
2023/01/23 15:17:26;;;;;;;9.40;4.82;;;;;;;5.70;84.41;101344.38;12190752;19;20744;-84
2023/01/23 15:21:34;;;;;;;8.40;4.47;;;;;;;5.64;85.28;101342.38;12183950;19;20010;-84
2023/01/23 15:25:36;;;;;;;14.43;6.10;;;;;;;5.51;85.75;101342.13;12208159;19;20470;-84
2023/01/23 15:29:38;;;;;;;16.20;7.63;;;;;;;5.34;86.10;101341.34;12203472;19;20338;-84
2023/01/23 15:33:41;;;;;;;11.02;5.68;;;;;;;5.12;86.75;101332.06;12179206;19;21519;-85
2023/01/23 15:37:47;;;;;;;10.52;5.50;;;;;;;4.83;88.59;101333.50;12207256;19;20010;-83
2023/01/23 15:41:55;;;;;;;11.50;6.35;;;;;;;4.61;89.95;101328.78;12203751;19;20010;-84
2023/01/23 15:45:58;;;;;;;9.63;5.43;;;;;;;4.38;90.97;101334.97;12181205;19;20007;-84
2023/01/23 15:50:02;;;;;;;11.13;4.90;;;;;;;4.28;91.33;101337.88;12208704;19;20355;-88
2023/01/23 15:54:10;;;;;;;12.13;5.97;;;;;;;4.16;91.92;101346.56;12206056;19;20426;-83
2023/01/23 15:58:15;;;;;;;14.35;7.25;;;;;;;4.00;92.58;101345.53;12183708;19;20475;-83
2023/01/23 16:02:19;;;;;;;14.68;7.72;;;;;;;3.82;93.99;101336.66;12208241;19;20011;-81
2023/01/23 16:06:32;;;;;;;13.60;6.57;;;;;;;3.64;95.47;101340.38;12184436;19;20010;-83
2023/01/23 16:10:36;;;;;;;13.73;6.13;;;;;;;3.52;96.30;101340.88;12208181;19;20014;-84
2023/01/23 16:14:38;;;;;;;10.75;6.20;;;;;;;3.42;97.75;101341.88;12204479;19;20374;-81
2023/01/23 16:18:41;;;;;;;9.82;5.35;;;;;;;3.31;98.83;101344.03;12185702;19;20040;-81
2023/01/23 16:22:44;;;;;;;10.73;5.50;;;;;;;3.29;98.68;101351.50;12205573;19;20014;-84
2023/01/23 16:26:47;;;;;;;11.70;5.80;;;;;;;3.19;99.35;101357.94;12206620;19;20677;-81
2023/01/23 16:30:57;;;;;;;11.05;4.97;;;;;;;3.08;99.50;101355.50;12179497;19;20031;-82
2023/01/23 16:34:59;;;;;;;10.50;4.60;;;;;;;3.00;99.82;101355.47;12186254;19;20015;-82
2023/01/23 16:39:01;;;;;;;10.60;5.40;;;;;;;2.88;99.71;101359.47;12205030;19;20013;-81
2023/01/23 16:43:03;;;;;;;11.48;5.15;;;;;;;2.77;100.00;101359.75;12183759;19;20007;-81
2023/01/23 16:47:04;;;;;;;11.52;5.57;;;;;;;2.67;100.00;101366.16;12198710;19;20010;-82
2023/01/23 16:51:22;;;;;;;10.85;5.45;;;;;;;2.72;100.00;101368.41;12213800;19;20014;-83
2023/01/23 16:55:29;;;;;;;16.67;7.57;;;;;;;2.63;100.00;101364.78;12196167;19;20015;-80
2023/01/23 16:59:35;;;;;;;12.52;6.18;;;;;;;2.55;100.00;101364.72;12209014;19;20759;-81
2023/01/23 17:03:39;;;;;;;13.75;6.88;;;;;;;2.53;100.00;101372.22;12188379;19;20006;-81
2023/01/23 17:07:41;;;;;;;16.75;7.78;;;;;;;2.46;100.00;101371.13;12209243;19;20082;-81
2023/01/23 17:11:51;;;;;;;21.33;10.38;;;;;;;2.43;100.00;101375.00;12215025;19;20495;-80
2023/01/23 17:15:55;;;;;;;20.63;9.88;;;;;;;2.40;100.00;101382.66;12189875;19;20497;-81
2023/01/23 17:19:57;;;;;;;15.05;7.40;;;;;;;2.38;100.00;101381.94;12240171;19;20072;-81
2023/01/23 17:23:59;;;;;;;11.10;6.50;;;;;;;2.30;100.00;101384.63;12256024;19;20006;-80
2023/01/23 17:28:00;;;;;;;14.20;7.28;;;;;;;2.34;100.00;101389.56;12211069;19;20370;-82
2023/01/23 17:32:28;;;;;;;14.95;7.78;;;;;;;2.22;100.00;101377.22;12211592;19;20345;-82
2023/01/23 17:36:30;;;;;;;11.02;6.65;;;;;;;2.21;100.00;101395.41;12182781;19;20010;-86
2023/01/23 17:40:31;;;;;;;13.57;6.28;;;;;;;2.16;100.00;101397.75;12204529;19;20013;-82
2023/01/23 17:44:33;;;;;;;15.10;6.37;;;;;;;2.16;100.00;101399.63;12207465;19;20488;-81
2023/01/23 17:48:38;;;;;;;12.43;6.13;;;;;;;2.16;100.00;101400.47;12183817;19;20007;-82
2023/01/23 17:52:40;;;;;;;13.05;5.50;;;;;;;2.11;100.00;101402.78;12204535;19;20531;-83
2023/01/23 17:56:42;;;;;;;11.05;5.63;;;;;;;2.08;100.00;101403.09;12207043;19;20010;-81
2023/01/23 18:00:47;;;;;;;14.15;6.30;;;;;;;2.01;100.00;101404.75;12187863;19;20043;-80
2023/01/23 18:04:49;;;;;;;12.45;7.07;;;;;;;1.95;100.00;101397.22;12203194;19;20070;-80
2023/01/23 18:08:51;;;;;;;19.33;10.00;;;;;;;1.89;100.00;101404.13;12206079;19;20034;-80
2023/01/23 18:13:21;;;;;;;18.20;8.73;;;;;;;1.79;100.00;101412.34;12196331;19;20007;-82
2023/01/23 18:17:32;;;;;;;13.75;6.93;;;;;;;1.81;100.00;101395.88;12236858;19;20074;-81
2023/01/23 18:21:34;;;;;;;11.88;6.97;;;;;;;1.76;100.00;101409.94;12181357;19;20003;-81
2023/01/23 18:25:35;;;;;;;13.93;7.18;;;;;;;1.74;100.00;101409.22;12204301;19;20003;-81
2023/01/23 18:29:50;;;;;;;13.68;6.35;;;;;;;1.73;100.00;101404.81;12206015;19;20003;-80
2023/01/23 18:33:55;;;;;;;11.00;5.75;;;;;;;1.69;100.00;101408.81;12177985;19;20015;-80
2023/01/23 18:38:18;;;;;;;19.35;7.90;;;;;;;1.66;100.00;101395.53;12209415;19;20070;-80
2023/01/23 18:42:23;;;;;;;;;;;;;;;1.60;100.00;101396.16;12202832;19;20006;-81
2023/01/23 18:46:26;;;;;;;15.15;7.00;;;;;;;1.56;100.00;101400.19;12181150;19;19932;-80
2023/01/23 18:50:28;;;;;;;15.48;8.07;;;;;;;1.60;100.00;101399.72;12202291;19;20028;-81
2023/01/23 18:54:40;;;;;;;12.00;7.03;;;;;;;1.57;100.00;101405.47;12182780;19;20019;-81
2023/01/23 18:59:01;;;;;;;13.37;6.03;;;;;;;1.53;100.00;101414.09;12213933;19;20024;-80
2023/01/23 19:03:15;;;;;;;15.07;6.60;;;;;;;1.48;100.00;101413.69;12213439;19;20018;-81
2023/01/23 19:07:19;;;;;;;16.70;7.70;;;;;;;1.46;100.00;101408.41;12198940;19;20662;-81
2023/01/23 19:11:39;;;;;;;16.98;7.55;;;;;;;1.46;100.00;101410.25;12217248;19;20011;-81
2023/01/23 19:15:46;;;;;;;15.50;7.35;;;;;;;1.48;100.00;101416.41;12199973;19;20007;-82
2023/01/23 19:20:02;;;;;;;14.07;6.68;;;;;;;1.46;100.00;101407.53;12225840;19;20074;-82
2023/01/23 19:24:06;;;;;;;13.00;6.50;;;;;;;1.45;100.00;101422.13;12220658;19;20035;-82
2023/01/23 19:28:09;;;;;;;15.00;7.10;;;;;;;1.46;100.00;101426.53;12206918;19;20027;-83
2023/01/23 19:32:12;;;;;;;16.08;7.28;;;;;;;1.44;100.00;101428.59;12244826;19;20003;-81